sensor_id;sensor_type;location;lat;lon;timestamp;pressure;altitude;pressure_sealevel;temperature;humidity
57234;BME280;43090;52.604;13.318;2023-04-22T00:01:59;100984.31;;;11.02;69.28
57234;BME280;43090;52.604;13.318;2023-04-22T00:04:27;100998.34;;;11.06;68.84
57234;BME280;43090;52.604;13.318;2023-04-22T00:06:54;100975.84;;;10.95;68.43
57234;BME280;43090;52.604;13.318;2023-04-22T00:09:21;100982.19;;;10.94;68.05
57234;BME280;43090;52.604;13.318;2023-04-22T00:11:47;100973.47;;;10.91;68.79
57234;BME280;43090;52.604;13.318;2023-04-22T00:14:14;100977.88;;;10.92;69.82
57234;BME280;43090;52.604;13.318;2023-04-22T00:16:40;100969.84;;;10.92;69.84
57234;BME280;43090;52.604;13.318;2023-04-22T00:19:07;100963.41;;;10.81;68.40
57234;BME280;43090;52.604;13.318;2023-04-22T00:21:33;100964.16;;;10.83;69.58
57234;BME280;43090;52.604;13.318;2023-04-22T00:24:00;100971.72;;;10.77;70.37
57234;BME280;43090;52.604;13.318;2023-04-22T00:26:26;100960.69;;;10.69;70.70
57234;BME280;43090;52.604;13.318;2023-04-22T00:28:53;100958.66;;;10.59;71.26
57234;BME280;43090;52.604;13.318;2023-04-22T00:31:19;100947.59;;;10.51;70.30
57234;BME280;43090;52.604;13.318;2023-04-22T00:33:46;100950.41;;;10.62;70.65
57234;BME280;43090;52.604;13.318;2023-04-22T00:36:12;100953.28;;;10.59;71.22
57234;BME280;43090;52.604;13.318;2023-04-22T00:38:40;100963.81;;;10.62;70.42
57234;BME280;43090;52.604;13.318;2023-04-22T00:41:09;100945.88;;;10.50;71.09
57234;BME280;43090;52.604;13.318;2023-04-22T00:43:35;100955.34;;;10.56;70.95
57234;BME280;43090;52.604;13.318;2023-04-22T00:46:02;100942.25;;;10.51;70.91
57234;BME280;43090;52.604;13.318;2023-04-22T00:48:29;100943.19;;;10.50;71.61
57234;BME280;43090;52.604;13.318;2023-04-22T00:50:56;100940.66;;;10.61;71.98
57234;BME280;43090;52.604;13.318;2023-04-22T00:53:23;100944.72;;;10.54;70.89
57234;BME280;43090;52.604;13.318;2023-04-22T00:55:49;100956.03;;;10.45;71.29
57234;BME280;43090;52.604;13.318;2023-04-22T00:58:17;100947.16;;;10.44;71.39
57234;BME280;43090;52.604;13.318;2023-04-22T01:00:44;100938.28;;;10.44;70.81
57234;BME280;43090;52.604;13.318;2023-04-22T01:03:12;100931.22;;;10.43;71.41
57234;BME280;43090;52.604;13.318;2023-04-22T01:05:39;100949.19;;;10.41;70.84
57234;BME280;43090;52.604;13.318;2023-04-22T01:08:06;100936.19;;;10.34;71.12
57234;BME280;43090;52.604;13.318;2023-04-22T01:10:33;100927.75;;;10.41;70.87
57234;BME280;43090;52.604;13.318;2023-04-22T01:13:00;100935.94;;;10.25;70.29
57234;BME280;43090;52.604;13.318;2023-04-22T01:15:27;100922.25;;;10.29;69.82
57234;BME280;43090;52.604;13.318;2023-04-22T01:17:54;100938.59;;;10.25;68.84
57234;BME280;43090;52.604;13.318;2023-04-22T01:20:21;100932.38;;;10.39;69.64
57234;BME280;43090;52.604;13.318;2023-04-22T01:22:52;100931.97;;;10.30;70.72
57234;BME280;43090;52.604;13.318;2023-04-22T01:25:20;100928.78;;;10.25;71.15
57234;BME280;43090;52.604;13.318;2023-04-22T01:27:46;100939.44;;;10.40;70.27
57234;BME280;43090;52.604;13.318;2023-04-22T01:30:13;100927.47;;;10.18;71.29
57234;BME280;43090;52.604;13.318;2023-04-22T01:32:40;100940.06;;;10.16;71.70
57234;BME280;43090;52.604;13.318;2023-04-22T01:50:50;100904.00;;;8.96;77.98
57234;BME280;43090;52.604;13.318;2023-04-22T01:53:17;100900.56;;;9.23;77.56
57234;BME280;43090;52.604;13.318;2023-04-22T01:55:44;100918.84;;;9.58;76.05
57234;BME280;43090;52.604;13.318;2023-04-22T01:58:10;100919.78;;;9.72;75.52
57234;BME280;43090;52.604;13.318;2023-04-22T02:00:37;100918.63;;;9.76;75.89
57234;BME280;43090;52.604;13.318;2023-04-22T02:03:03;100883.78;;;9.63;75.66
57234;BME280;43090;52.604;13.318;2023-04-22T02:05:30;100894.75;;;9.73;75.63
57234;BME280;43090;52.604;13.318;2023-04-22T02:07:56;100893.50;;;9.78;74.95
57234;BME280;43090;52.604;13.318;2023-04-22T02:10:23;100891.78;;;9.77;74.90
57234;BME280;43090;52.604;13.318;2023-04-22T02:12:49;100903.03;;;9.82;74.29
57234;BME280;43090;52.604;13.318;2023-04-22T02:15:16;100900.25;;;9.84;73.24
57234;BME280;43090;52.604;13.318;2023-04-22T02:17:42;100898.25;;;9.88;73.38
57234;BME280;43090;52.604;13.318;2023-04-22T02:20:09;100893.75;;;9.61;73.59
57234;BME280;43090;52.604;13.318;2023-04-22T02:22:37;100887.44;;;9.62;73.50
57234;BME280;43090;52.604;13.318;2023-04-22T02:25:04;100884.13;;;9.44;72.14
57234;BME280;43090;52.604;13.318;2023-04-22T02:27:31;100889.25;;;9.61;70.38
57234;BME280;43090;52.604;13.318;2023-04-22T02:29:57;100874.09;;;9.62;70.38
57234;BME280;43090;52.604;13.318;2023-04-22T02:32:24;100865.63;;;9.68;68.94
57234;BME280;43090;52.604;13.318;2023-04-22T02:34:51;100861.41;;;9.37;66.27
57234;BME280;43090;52.604;13.318;2023-04-22T02:37:17;100882.25;;;9.73;69.32
57234;BME280;43090;52.604;13.318;2023-04-22T02:39:44;100866.09;;;9.75;70.92
57234;BME280;43090;52.604;13.318;2023-04-22T02:42:11;100870.19;;;9.80;71.81
57234;BME280;43090;52.604;13.318;2023-04-22T02:44:37;100869.72;;;9.46;70.94
57234;BME280;43090;52.604;13.318;2023-04-22T02:47:05;100865.13;;;9.76;71.24
57234;BME280;43090;52.604;13.318;2023-04-22T02:49:32;100868.22;;;9.70;71.70
57234;BME280;43090;52.604;13.318;2023-04-22T02:51:58;100868.81;;;9.60;71.44
57234;BME280;43090;52.604;13.318;2023-04-22T02:54:25;100860.78;;;9.60;70.56
57234;BME280;43090;52.604;13.318;2023-04-22T02:56:51;100862.06;;;9.55;69.21
57234;BME280;43090;52.604;13.318;2023-04-22T02:59:18;100865.41;;;9.58;71.28
57234;BME280;43090;52.604;13.318;2023-04-22T03:01:44;100872.72;;;9.69;71.54
57234;BME280;43090;52.604;13.318;2023-04-22T03:04:11;100879.97;;;9.67;71.53
57234;BME280;43090;52.604;13.318;2023-04-22T03:06:40;100860.66;;;9.34;70.04
57234;BME280;43090;52.604;13.318;2023-04-22T03:09:06;100868.81;;;9.60;69.71
57234;BME280;43090;52.604;13.318;2023-04-22T03:11:32;100848.25;;;9.33;71.10
57234;BME280;43090;52.604;13.318;2023-04-22T03:13:59;100861.13;;;9.41;70.36
57234;BME280;43090;52.604;13.318;2023-04-22T03:16:25;100861.03;;;9.43;71.43
57234;BME280;43090;52.604;13.318;2023-04-22T03:18:52;100864.81;;;9.53;70.79
57234;BME280;43090;52.604;13.318;2023-04-22T03:21:18;100868.88;;;9.46;71.64
57234;BME280;43090;52.604;13.318;2023-04-22T03:23:45;100860.78;;;9.33;71.93
57234;BME280;43090;52.604;13.318;2023-04-22T03:26:11;100855.59;;;9.30;69.64
57234;BME280;43090;52.604;13.318;2023-04-22T03:28:38;100856.47;;;9.30;67.87
57234;BME280;43090;52.604;13.318;2023-04-22T03:31:05;100850.38;;;9.28;71.46
57234;BME280;43090;52.604;13.318;2023-04-22T03:33:33;100859.06;;;9.32;72.09
57234;BME280;43090;52.604;13.318;2023-04-22T03:35:59;100866.75;;;9.37;72.13
57234;BME280;43090;52.604;13.318;2023-04-22T03:38:26;100849.91;;;9.22;72.22
57234;BME280;43090;52.604;13.318;2023-04-22T03:40:52;100859.44;;;9.26;72.26
57234;BME280;43090;52.604;13.318;2023-04-22T03:43:19;100852.09;;;9.15;72.01
57234;BME280;43090;52.604;13.318;2023-04-22T03:45:45;100845.91;;;9.14;72.26
57234;BME280;43090;52.604;13.318;2023-04-22T03:48:12;100855.31;;;9.34;72.48
57234;BME280;43090;52.604;13.318;2023-04-22T03:50:38;100832.56;;;9.14;72.87
57234;BME280;43090;52.604;13.318;2023-04-22T03:53:05;100849.91;;;9.07;72.15
57234;BME280;43090;52.604;13.318;2023-04-22T03:55:32;100864.50;;;9.16;72.94
57234;BME280;43090;52.604;13.318;2023-04-22T03:57:58;100861.38;;;9.24;72.55
57234;BME280;43090;52.604;13.318;2023-04-22T04:00:25;100859.84;;;9.20;73.29
57234;BME280;43090;52.604;13.318;2023-04-22T04:02:52;100867.06;;;9.32;73.94
57234;BME280;43090;52.604;13.318;2023-04-22T04:05:18;100864.50;;;9.16;74.98
57234;BME280;43090;52.604;13.318;2023-04-22T04:07:45;100854.78;;;9.00;73.59
57234;BME280;43090;52.604;13.318;2023-04-22T04:10:11;100858.22;;;9.03;74.99
57234;BME280;43090;52.604;13.318;2023-04-22T04:12:38;100854.41;;;9.07;75.18
57234;BME280;43090;52.604;13.318;2023-04-22T04:15:05;100842.59;;;8.96;74.61
57234;BME280;43090;52.604;13.318;2023-04-22T04:17:32;100868.50;;;9.09;73.89
57234;BME280;43090;52.604;13.318;2023-04-22T04:19:58;100859.09;;;9.03;73.89
57234;BME280;43090;52.604;13.318;2023-04-22T04:22:25;100857.28;;;9.04;71.83
57234;BME280;43090;52.604;13.318;2023-04-22T04:24:53;100859.56;;;9.10;72.69
57234;BME280;43090;52.604;13.318;2023-04-22T04:27:21;100866.03;;;9.20;73.96
57234;BME280;43090;52.604;13.318;2023-04-22T04:29:49;100840.47;;;9.16;73.63
57234;BME280;43090;52.604;13.318;2023-04-22T04:32:16;100852.47;;;9.09;74.79
57234;BME280;43090;52.604;13.318;2023-04-22T04:34:43;100856.22;;;8.77;73.65
57234;BME280;43090;52.604;13.318;2023-04-22T04:37:10;100842.09;;;9.04;73.63
57234;BME280;43090;52.604;13.318;2023-04-22T04:39:36;100866.47;;;9.41;74.11
57234;BME280;43090;52.604;13.318;2023-04-22T04:42:03;100848.03;;;9.09;74.84
57234;BME280;43090;52.604;13.318;2023-04-22T04:44:30;100858.38;;;9.28;74.17
57234;BME280;43090;52.604;13.318;2023-04-22T04:46:57;100857.44;;;9.15;74.87
57234;BME280;43090;52.604;13.318;2023-04-22T04:49:24;100845.44;;;9.22;73.76
57234;BME280;43090;52.604;13.318;2023-04-22T04:51:51;100866.75;;;9.37;71.69
57234;BME280;43090;52.604;13.318;2023-04-22T04:54:17;100845.94;;;9.42;73.11
57234;BME280;43090;52.604;13.318;2023-04-22T04:56:44;100856.16;;;9.49;72.58
57234;BME280;43090;52.604;13.318;2023-04-22T04:59:10;100869.41;;;9.51;74.21
57234;BME280;43090;52.604;13.318;2023-04-22T05:01:37;100868.06;;;9.58;73.76
57234;BME280;43090;52.604;13.318;2023-04-22T05:04:03;100871.53;;;9.73;73.06
57234;BME280;43090;52.604;13.318;2023-04-22T05:06:31;100868.44;;;9.52;72.22
57234;BME280;43090;52.604;13.318;2023-04-22T05:08:59;100857.44;;;9.71;73.20
57234;BME280;43090;52.604;13.318;2023-04-22T05:11:25;100871.47;;;9.60;69.32
57234;BME280;43090;52.604;13.318;2023-04-22T05:13:52;100869.38;;;9.93;71.28
57234;BME280;43090;52.604;13.318;2023-04-22T05:16:18;100868.91;;;10.13;70.51
57234;BME280;43090;52.604;13.318;2023-04-22T05:18:45;100856.91;;;10.06;69.57
57234;BME280;43090;52.604;13.318;2023-04-22T05:21:12;100846.38;;;9.90;65.58
57234;BME280;43090;52.604;13.318;2023-04-22T05:23:38;100845.84;;;9.98;64.23
57234;BME280;43090;52.604;13.318;2023-04-22T05:26:05;100858.06;;;10.02;64.94
57234;BME280;43090;52.604;13.318;2023-04-22T05:28:31;100848.28;;;10.28;64.55
57234;BME280;43090;52.604;13.318;2023-04-22T05:30:58;100849.41;;;10.39;67.56
57234;BME280;43090;52.604;13.318;2023-04-22T05:33:24;100846.41;;;10.56;64.83
57234;BME280;43090;52.604;13.318;2023-04-22T05:35:51;100852.94;;;10.78;67.68
57234;BME280;43090;52.604;13.318;2023-04-22T05:38:17;100856.22;;;11.07;66.88
57234;BME280;43090;52.604;13.318;2023-04-22T05:40:44;100857.53;;;10.89;65.26
57234;BME280;43090;52.604;13.318;2023-04-22T05:43:10;100853.69;;;10.93;65.31
57234;BME280;43090;52.604;13.318;2023-04-22T05:45:37;100853.06;;;10.89;62.66
57234;BME280;43090;52.604;13.318;2023-04-22T05:48:03;100845.84;;;10.77;60.90
57234;BME280;43090;52.604;13.318;2023-04-22T05:50:30;100860.63;;;11.08;62.27
57234;BME280;43090;52.604;13.318;2023-04-22T05:52:56;100855.78;;;11.26;61.42
57234;BME280;43090;52.604;13.318;2023-04-22T05:55:23;100858.47;;;11.26;58.54
57234;BME280;43090;52.604;13.318;2023-04-22T05:57:50;100857.84;;;11.47;56.86
57234;BME280;43090;52.604;13.318;2023-04-22T06:00:16;100873.22;;;11.69;58.10
57234;BME280;43090;52.604;13.318;2023-04-22T06:02:43;100867.81;;;11.82;59.96
57234;BME280;43090;52.604;13.318;2023-04-22T06:05:10;100853.84;;;12.14;55.40
57234;BME280;43090;52.604;13.318;2023-04-22T06:07:36;100839.41;;;12.04;57.26
57234;BME280;43090;52.604;13.318;2023-04-22T06:10:03;100848.81;;;12.56;54.39
57234;BME280;43090;52.604;13.318;2023-04-22T06:12:32;100849.78;;;12.55;54.18
57234;BME280;43090;52.604;13.318;2023-04-22T06:14:58;100864.34;;;13.32;51.46
57234;BME280;43090;52.604;13.318;2023-04-22T06:17:25;100864.22;;;14.00;50.10
57234;BME280;43090;52.604;13.318;2023-04-22T06:19:52;100864.38;;;13.87;50.44
57234;BME280;43090;52.604;13.318;2023-04-22T06:22:20;100869.22;;;13.61;53.67
57234;BME280;43090;52.604;13.318;2023-04-22T06:24:46;100867.06;;;13.87;51.61
57234;BME280;43090;52.604;13.318;2023-04-22T06:27:13;100869.97;;;14.49;51.08
57234;BME280;43090;52.604;13.318;2023-04-22T06:29:42;100856.25;;;15.45;48.75
57234;BME280;43090;52.604;13.318;2023-04-22T06:32:08;100864.19;;;15.46;45.48
57234;BME280;43090;52.604;13.318;2023-04-22T06:34:35;100862.09;;;15.50;45.24
57234;BME280;43090;52.604;13.318;2023-04-22T06:37:04;100857.47;;;14.90;49.69
57234;BME280;43090;52.604;13.318;2023-04-22T06:39:31;100852.44;;;14.33;49.45
57234;BME280;43090;52.604;13.318;2023-04-22T06:41:58;100866.84;;;14.11;47.90
57234;BME280;43090;52.604;13.318;2023-04-22T06:44:24;100854.81;;;13.94;49.75
57234;BME280;43090;52.604;13.318;2023-04-22T06:46:51;100873.91;;;13.91;48.18
57234;BME280;43090;52.604;13.318;2023-04-22T06:49:23;100851.84;;;13.76;50.83
57234;BME280;43090;52.604;13.318;2023-04-22T06:51:49;100845.34;;;13.68;51.49
57234;BME280;43090;52.604;13.318;2023-04-22T06:54:16;100849.78;;;13.69;51.25
57234;BME280;43090;52.604;13.318;2023-04-22T06:56:42;100849.59;;;14.14;52.07
57234;BME280;43090;52.604;13.318;2023-04-22T06:59:09;100841.31;;;14.90;46.65
57234;BME280;43090;52.604;13.318;2023-04-22T07:01:36;100856.41;;;15.43;46.79
57234;BME280;43090;52.604;13.318;2023-04-22T07:04:02;100843.44;;;15.37;46.54
57234;BME280;43090;52.604;13.318;2023-04-22T07:06:29;100849.41;;;16.01;45.91
57234;BME280;43090;52.604;13.318;2023-04-22T07:08:56;100850.53;;;15.89;46.10
57234;BME280;43090;52.604;13.318;2023-04-22T07:11:22;100837.00;;;15.79;45.53
57234;BME280;43090;52.604;13.318;2023-04-22T07:13:49;100853.97;;;15.81;47.34
57234;BME280;43090;52.604;13.318;2023-04-22T07:16:15;100826.09;;;15.80;45.94
57234;BME280;43090;52.604;13.318;2023-04-22T07:18:42;100834.63;;;16.25;43.57
57234;BME280;43090;52.604;13.318;2023-04-22T07:21:08;100838.53;;;15.52;46.14
57234;BME280;43090;52.604;13.318;2023-04-22T07:23:35;100857.88;;;15.57;46.60
57234;BME280;43090;52.604;13.318;2023-04-22T07:26:02;100835.09;;;15.50;45.84
57234;BME280;43090;52.604;13.318;2023-04-22T07:28:31;100851.75;;;15.65;47.24
57234;BME280;43090;52.604;13.318;2023-04-22T07:30:57;100833.53;;;15.38;44.41
57234;BME280;43090;52.604;13.318;2023-04-22T07:33:24;100839.75;;;15.28;45.57
57234;BME280;43090;52.604;13.318;2023-04-22T07:35:57;100836.09;;;15.49;45.47
57234;BME280;43090;52.604;13.318;2023-04-22T07:38:24;100835.97;;;15.51;47.88
57234;BME280;43090;52.604;13.318;2023-04-22T07:40:51;100854.59;;;16.61;44.25
57234;BME280;43090;52.604;13.318;2023-04-22T07:43:17;100837.63;;;17.17;40.38
57234;BME280;43090;52.604;13.318;2023-04-22T07:45:44;100804.47;;;18.14;40.10
57234;BME280;43090;52.604;13.318;2023-04-22T07:48:10;100848.84;;;18.13;41.66
57234;BME280;43090;52.604;13.318;2023-04-22T07:50:38;100840.31;;;18.26;39.87
57234;BME280;43090;52.604;13.318;2023-04-22T07:53:04;100827.38;;;17.66;39.88
57234;BME280;43090;52.604;13.318;2023-04-22T07:55:31;100819.63;;;17.71;40.46
57234;BME280;43090;52.604;13.318;2023-04-22T07:57:58;100796.22;;;18.42;38.42
57234;BME280;43090;52.604;13.318;2023-04-22T08:00:26;100798.06;;;18.94;37.84
57234;BME280;43090;52.604;13.318;2023-04-22T08:02:53;100802.66;;;19.02;37.39
57234;BME280;43090;52.604;13.318;2023-04-22T08:05:19;100818.44;;;19.50;38.05
57234;BME280;43090;52.604;13.318;2023-04-22T08:07:46;100807.28;;;19.10;36.77
57234;BME280;43090;52.604;13.318;2023-04-22T08:10:12;100787.91;;;19.64;37.45
57234;BME280;43090;52.604;13.318;2023-04-22T08:12:39;100784.41;;;20.94;36.11
57234;BME280;43090;52.604;13.318;2023-04-22T08:15:06;100809.06;;;21.01;37.23
57234;BME280;43090;52.604;13.318;2023-04-22T08:17:33;100807.94;;;21.26;33.80
57234;BME280;43090;52.604;13.318;2023-04-22T08:19:59;100774.31;;;20.55;33.82
57234;BME280;43090;52.604;13.318;2023-04-22T08:22:26;100779.91;;;20.70;35.76
57234;BME280;43090;52.604;13.318;2023-04-22T08:24:52;100795.78;;;20.00;35.57
57234;BME280;43090;52.604;13.318;2023-04-22T08:27:22;100805.63;;;20.34;35.16
57234;BME280;43090;52.604;13.318;2023-04-22T08:29:49;100806.47;;;19.85;35.93
57234;BME280;43090;52.604;13.318;2023-04-22T08:32:15;100790.19;;;19.93;33.89
57234;BME280;43090;52.604;13.318;2023-04-22T08:34:47;100778.31;;;19.86;37.49
57234;BME280;43090;52.604;13.318;2023-04-22T08:37:15;100792.34;;;19.65;36.24
57234;BME280;43090;52.604;13.318;2023-04-22T08:39:42;100794.19;;;19.56;36.07
57234;BME280;43090;52.604;13.318;2023-04-22T08:42:09;100779.94;;;18.69;36.12
57234;BME280;43090;52.604;13.318;2023-04-22T08:44:38;100779.22;;;19.44;38.43
57234;BME280;43090;52.604;13.318;2023-04-22T08:47:04;100787.13;;;19.12;36.91
57234;BME280;43090;52.604;13.318;2023-04-22T08:49:34;100799.44;;;19.50;37.05
57234;BME280;43090;52.604;13.318;2023-04-22T08:52:01;100780.44;;;19.58;36.06
57234;BME280;43090;52.604;13.318;2023-04-22T08:54:27;100778.59;;;19.58;37.92
57234;BME280;43090;52.604;13.318;2023-04-22T08:56:54;100791.44;;;19.40;38.91
57234;BME280;43090;52.604;13.318;2023-04-22T08:59:22;100778.91;;;19.47;38.21
57234;BME280;43090;52.604;13.318;2023-04-22T09:01:51;100789.56;;;19.40;37.43
57234;BME280;43090;52.604;13.318;2023-04-22T09:04:19;100798.75;;;18.96;37.20
57234;BME280;43090;52.604;13.318;2023-04-22T09:06:46;100782.66;;;19.03;39.99
57234;BME280;43090;52.604;13.318;2023-04-22T09:09:12;100773.09;;;19.25;37.19
57234;BME280;43090;52.604;13.318;2023-04-22T09:11:40;100788.72;;;19.40;36.50
57234;BME280;43090;52.604;13.318;2023-04-22T09:14:06;100787.09;;;19.80;37.81
57234;BME280;43090;52.604;13.318;2023-04-22T09:16:39;100748.81;;;19.24;37.89
57234;BME280;43090;52.604;13.318;2023-04-22T09:19:10;100765.78;;;19.26;36.90
57234;BME280;43090;52.604;13.318;2023-04-22T09:21:38;100786.97;;;19.22;36.76
57234;BME280;43090;52.604;13.318;2023-04-22T09:24:07;100775.00;;;19.41;37.78
57234;BME280;43090;52.604;13.318;2023-04-22T09:26:38;100778.81;;;19.22;36.92
57234;BME280;43090;52.604;13.318;2023-04-22T09:29:05;100770.75;;;19.47;36.71
57234;BME280;43090;52.604;13.318;2023-04-22T09:31:35;100762.78;;;19.54;36.62
57234;BME280;43090;52.604;13.318;2023-04-22T09:34:03;100756.00;;;19.58;39.30
57234;BME280;43090;52.604;13.318;2023-04-22T09:36:31;100756.38;;;19.79;38.18
57234;BME280;43090;52.604;13.318;2023-04-22T09:39:05;100762.34;;;19.15;38.82
57234;BME280;43090;52.604;13.318;2023-04-22T09:41:36;100753.91;;;19.35;38.33
57234;BME280;43090;52.604;13.318;2023-04-22T09:44:08;100744.75;;;19.20;35.79
57234;BME280;43090;52.604;13.318;2023-04-22T09:46:35;100723.56;;;19.56;37.08
57234;BME280;43090;52.604;13.318;2023-04-22T09:49:01;100738.69;;;19.51;36.74
57234;BME280;43090;52.604;13.318;2023-04-22T09:51:29;100741.56;;;19.65;36.45
57234;BME280;43090;52.604;13.318;2023-04-22T09:54:03;100734.31;;;19.83;37.00
57234;BME280;43090;52.604;13.318;2023-04-22T09:59:08;100726.66;;;19.78;39.24
57234;BME280;43090;52.604;13.318;2023-04-22T10:01:38;100731.09;;;19.95;39.11
57234;BME280;43090;52.604;13.318;2023-04-22T10:04:07;100729.69;;;19.75;37.43
57234;BME280;43090;52.604;13.318;2023-04-22T10:06:39;100727.13;;;19.48;35.72
57234;BME280;43090;52.604;13.318;2023-04-22T10:09:06;100719.38;;;19.62;36.68
57234;BME280;43090;52.604;13.318;2023-04-22T10:11:34;100716.97;;;19.67;34.86
57234;BME280;43090;52.604;13.318;2023-04-22T10:14:01;100715.94;;;20.18;35.70
57234;BME280;43090;52.604;13.318;2023-04-22T10:16:30;100719.88;;;19.90;35.22
57234;BME280;43090;52.604;13.318;2023-04-22T10:18:59;100715.25;;;20.24;36.42
57234;BME280;43090;52.604;13.318;2023-04-22T10:21:29;100709.19;;;20.53;35.90
57234;BME280;43090;52.604;13.318;2023-04-22T10:24:00;100703.69;;;20.13;36.04
57234;BME280;43090;52.604;13.318;2023-04-22T10:26:47;100699.09;;;20.30;35.74
57234;BME280;43090;52.604;13.318;2023-04-22T10:29:17;100688.94;;;20.08;35.60
57234;BME280;43090;52.604;13.318;2023-04-22T10:31:54;100685.56;;;20.06;34.50
57234;BME280;43090;52.604;13.318;2023-04-22T10:34:22;100677.38;;;20.14;33.88
57234;BME280;43090;52.604;13.318;2023-04-22T10:39:21;100675.66;;;20.21;34.97
57234;BME280;43090;52.604;13.318;2023-04-22T10:41:53;100639.38;;;20.06;34.85
57234;BME280;43090;52.604;13.318;2023-04-22T10:44:21;100677.63;;;20.44;36.08
57234;BME280;43090;52.604;13.318;2023-04-22T10:49:19;100662.69;;;20.40;34.01
57234;BME280;43090;52.604;13.318;2023-04-22T10:51:55;100678.63;;;20.51;32.76
57234;BME280;43090;52.604;13.318;2023-04-22T10:59:31;100666.16;;;20.73;32.30
57234;BME280;43090;52.604;13.318;2023-04-22T11:02:05;100662.25;;;20.20;35.94
57234;BME280;43090;52.604;13.318;2023-04-22T11:04:32;100646.03;;;20.35;36.17
57234;BME280;43090;52.604;13.318;2023-04-22T11:15:06;100668.41;;;20.53;33.34
57234;BME280;43090;52.604;13.318;2023-04-22T11:17:33;100646.03;;;20.43;33.43
57234;BME280;43090;52.604;13.318;2023-04-22T11:20:01;100648.41;;;20.86;32.94
57234;BME280;43090;52.604;13.318;2023-04-22T11:22:28;100645.59;;;20.71;31.09
57234;BME280;43090;52.604;13.318;2023-04-22T11:25:00;100638.88;;;21.13;34.08
57234;BME280;43090;52.604;13.318;2023-04-22T11:27:26;100629.72;;;20.83;32.71
57234;BME280;43090;52.604;13.318;2023-04-22T11:30:03;100646.03;;;20.43;36.53
57234;BME280;43090;52.604;13.318;2023-04-22T11:32:31;100617.03;;;20.27;33.79
57234;BME280;43090;52.604;13.318;2023-04-22T11:35:02;100633.66;;;20.32;36.55
57234;BME280;43090;52.604;13.318;2023-04-22T11:37:29;100624.19;;;20.59;32.30
57234;BME280;43090;52.604;13.318;2023-04-22T11:39:59;100630.19;;;20.55;32.99
57234;BME280;43090;52.604;13.318;2023-04-22T11:42:47;100640.63;;;20.74;34.72
57234;BME280;43090;52.604;13.318;2023-04-22T11:45:14;100642.50;;;20.74;32.48
57234;BME280;43090;52.604;13.318;2023-04-22T11:47:41;100632.03;;;21.17;35.07
57234;BME280;43090;52.604;13.318;2023-04-22T11:50:09;100634.53;;;21.04;33.50
57234;BME280;43090;52.604;13.318;2023-04-22T11:52:57;100627.19;;;21.04;32.20
57234;BME280;43090;52.604;13.318;2023-04-22T11:55:27;100616.31;;;21.04;32.07
57234;BME280;43090;52.604;13.318;2023-04-22T11:58:17;100636.38;;;21.03;31.35
57234;BME280;43090;52.604;13.318;2023-04-22T12:00:48;100620.34;;;20.85;33.20
57234;BME280;43090;52.604;13.318;2023-04-22T12:03:20;100613.69;;;21.11;32.61
57234;BME280;43090;52.604;13.318;2023-04-22T12:05:56;100599.91;;;20.89;35.34
57234;BME280;43090;52.604;13.318;2023-04-22T12:08:24;100608.38;;;20.94;32.13
57234;BME280;43090;52.604;13.318;2023-04-22T12:10:54;100612.38;;;21.07;33.11
57234;BME280;43090;52.604;13.318;2023-04-22T12:13:24;100614.91;;;21.32;30.84
57234;BME280;43090;52.604;13.318;2023-04-22T12:15:59;100594.31;;;20.51;32.61
57234;BME280;43090;52.604;13.318;2023-04-22T12:18:29;100616.56;;;20.94;32.81
57234;BME280;43090;52.604;13.318;2023-04-22T12:23:49;100603.00;;;21.09;31.60
57234;BME280;43090;52.604;13.318;2023-04-22T12:26:18;100612.59;;;20.74;34.23
57234;BME280;43090;52.604;13.318;2023-04-22T12:28:45;100586.06;;;20.76;32.56
57234;BME280;43090;52.604;13.318;2023-04-22T12:31:13;100612.53;;;20.51;36.24
57234;BME280;43090;52.604;13.318;2023-04-22T12:33:40;100615.63;;;20.79;31.93
57234;BME280;43090;52.604;13.318;2023-04-22T12:36:07;100596.75;;;21.24;32.70
57234;BME280;43090;52.604;13.318;2023-04-22T12:38:34;100606.56;;;20.87;30.58
57234;BME280;43090;52.604;13.318;2023-04-22T12:41:01;100600.22;;;20.94;31.27
57234;BME280;43090;52.604;13.318;2023-04-22T12:43:28;100599.97;;;21.04;29.57
57234;BME280;43090;52.604;13.318;2023-04-22T12:45:54;100594.81;;;21.33;32.26
57234;BME280;43090;52.604;13.318;2023-04-22T12:48:21;100594.03;;;21.24;30.67
57234;BME280;43090;52.604;13.318;2023-04-22T12:50:47;100595.97;;;20.60;34.08
57234;BME280;43090;52.604;13.318;2023-04-22T12:53:14;100576.16;;;21.06;34.00
57234;BME280;43090;52.604;13.318;2023-04-22T12:55:41;100572.69;;;21.12;30.44
57234;BME280;43090;52.604;13.318;2023-04-22T12:58:11;100568.66;;;21.23;30.82
57234;BME280;43090;52.604;13.318;2023-04-22T13:00:37;100580.25;;;21.02;33.23
57234;BME280;43090;52.604;13.318;2023-04-22T13:03:04;100568.56;;;21.17;30.07
57234;BME280;43090;52.604;13.318;2023-04-22T13:05:31;100580.75;;;21.67;32.64
57234;BME280;43090;52.604;13.318;2023-04-22T13:07:57;100573.47;;;21.21;33.04
57234;BME280;43090;52.604;13.318;2023-04-22T13:10:33;100577.34;;;20.09;35.02
57234;BME280;43090;52.604;13.318;2023-04-22T13:12:59;100558.66;;;21.01;32.42
57234;BME280;43090;52.604;13.318;2023-04-22T13:15:43;100549.47;;;21.40;31.82
57234;BME280;43090;52.604;13.318;2023-04-22T13:18:10;100560.41;;;21.55;32.03
57234;BME280;43090;52.604;13.318;2023-04-22T13:20:36;100532.75;;;21.43;30.00
57234;BME280;43090;52.604;13.318;2023-04-22T13:23:03;100549.28;;;21.65;29.57
57234;BME280;43090;52.604;13.318;2023-04-22T13:25:32;100543.72;;;21.58;28.97